Time;durP1;ratioP1;P1;durP2;ratioP2;P2;SDS_P1;SDS_P2;PMS_P1;PMS_P2;Temp;Humidity;BMP_temperature;BMP_pressure;BME280_temperature;BME280_humidity;BME280_pressure;Samples;Min_cycle;Max_cycle;Signal;HPM_P1;HPM_P2
2023/10/13 04:01:46;;;;;;;3.67;2.33;;;18.60;62.80;;;;;;5499777;23;20850;-77
2023/10/13 04:04:15;;;;;;;3.13;2.30;;;18.60;62.80;;;;;;4977669;28;20441;-77
2023/10/13 04:07:13;;;;;;;3.17;2.37;;;18.70;63.00;;;;;;4977969;28;20442;-77
2023/10/13 04:09:54;;;;;;;3.80;2.17;;;18.80;63.20;;;;;;4977961;28;20438;-77
2023/10/13 04:15:18;;;;;;;3.43;2.00;;;18.70;61.70;;;;;;4976522;28;20449;-77
2023/10/13 04:17:46;;;;;;;3.80;1.83;;;18.80;62.20;;;;;;4978384;28;20477;-76
2023/10/13 04:20:27;;;;;;;3.33;1.90;;;18.90;62.20;;;;;;4977934;28;20557;-77
2023/10/13 04:25:52;;;;;;;6.70;2.60;;;19.00;61.60;;;;;;4967577;28;20441;-77
2023/10/13 04:28:33;;;;;;;4.20;2.13;;;19.10;61.70;;;;;;4977741;28;20501;-77
2023/10/13 04:31:11;;;;;;;5.07;2.33;;;19.00;62.10;;;;;;4977597;28;20465;-76
2023/10/13 04:33:51;;;;;;;2.87;2.20;;;19.00;61.50;;;;;;4977516;28;20429;-77
2023/10/13 04:36:22;;;;;;;2.33;1.63;;;18.90;62.60;;;;;;4977397;28;20970;-77
2023/10/13 04:38:59;;;;;;;5.83;2.90;;;18.80;63.00;;;;;;4977096;28;20438;-77
2023/10/13 04:41:31;;;;;;;4.30;2.17;;;18.80;63.40;;;;;;4978121;28;20470;-77
2023/10/13 04:44:04;;;;;;;3.17;2.10;;;18.80;62.70;;;;;;4977596;28;20453;-76
2023/10/13 04:46:54;;;;;;;3.20;2.10;;;18.70;62.60;;;;;;4976812;28;20806;-77
2023/10/13 04:49:28;;;;;;;3.73;2.60;;;18.70;63.30;;;;;;4977130;28;20934;-77
2023/10/13 04:52:12;;;;;;;3.07;2.60;;;18.60;62.60;;;;;;4975778;28;20473;-77
2023/10/13 04:54:45;;;;;;;2.70;1.60;;;18.50;63.70;;;;;;4977077;28;20455;-77
2023/10/13 04:57:31;;;;;;;4.10;2.53;;;18.60;62.90;;;;;;4977050;28;20465;-76
2023/10/13 05:03:30;;;;;;;4.07;2.30;;;18.60;63.20;;;;;;4975703;28;20441;-77
2023/10/13 05:06:13;;;;;;;6.47;2.53;;;18.60;63.30;;;;;;4976281;28;20448;-77
2023/10/13 05:44:37;;;;;;;3.10;2.40;;;18.00;64.70;;;;;;4976695;28;20430;-77
2023/10/13 05:49:53;;;;;;;3.10;2.07;;;18.10;65.00;;;;;;4976259;28;20410;-77
2023/10/13 05:52:19;;;;;;;3.87;2.03;;;18.10;65.30;;;;;;4975651;28;21036;-77
2023/10/13 06:30:29;;;;;;;4.63;2.40;;;20.90;57.10;;;;;;4975585;28;20410;-77
2023/10/13 06:32:56;;;;;;;5.67;2.27;;;21.30;55.50;;;;;;4976062;28;20453;-78
2023/10/13 06:35:23;;;;;;;3.43;2.17;;;21.60;54.50;;;;;;4974998;28;20821;-77
2023/10/13 06:37:50;;;;;;;4.70;2.70;;;21.50;54.80;;;;;;4974774;28;20485;-77
2023/10/13 06:40:33;;;;;;;3.33;2.00;;;21.50;54.80;;;;;;4974865;28;20457;-77
2023/10/13 06:43:17;;;;;;;3.70;2.20;;;21.50;55.10;;;;;;4975014;28;20521;-77
2023/10/13 06:45:50;;;;;;;3.50;2.30;;;21.30;55.30;;;;;;4974534;28;20922;-78
2023/10/13 06:48:20;;;;;;;4.20;2.57;;;21.20;55.30;;;;;;4975382;28;20458;-78
2023/10/13 06:50:52;;;;;;;5.30;2.27;;;21.20;55.40;;;;;;4975837;28;20585;-78
2023/10/13 06:53:19;;;;;;;3.80;2.10;;;21.50;54.90;;;;;;4975325;28;20928;-77
2023/10/13 06:55:47;;;;;;;3.30;2.50;;;22.00;54.20;;;;;;4975886;28;20450;-77
2023/10/13 06:58:17;;;;;;;6.37;2.67;;;23.20;52.80;;;;;;4974577;28;20481;-77
2023/10/13 07:00:52;;;;;;;3.67;1.80;;;24.60;50.40;;;;;;4974654;28;20569;-78
2023/10/13 07:03:19;;;;;;;4.00;2.37;;;25.90;46.50;;;;;;4974393;28;20907;-75
2023/10/13 07:05:47;;;;;;;3.67;2.50;;;27.00;46.30;;;;;;4974397;28;20453;-73
2023/10/13 07:08:19;;;;;;;2.90;2.43;;;27.90;44.80;;;;;;4974427;28;20438;-74
2023/10/13 07:11:01;;;;;;;3.73;2.43;;;28.80;42.80;;;;;;4974372;28;20540;-73
2023/10/13 07:13:29;;;;;;;3.13;2.03;;;29.80;41.10;;;;;;4974573;28;20449;-75
2023/10/13 07:16:01;;;;;;;4.90;2.23;;;30.70;40.20;;;;;;4973557;28;20450;-75
2023/10/13 07:18:35;;;;;;;2.70;2.00;;;31.50;38.30;;;;;;4974230;28;20430;-74
2023/10/13 07:21:09;;;;;;;3.40;2.40;;;32.50;37.50;;;;;;4974211;28;20501;-75
2023/10/13 07:23:37;;;;;;;5.30;2.50;;;32.70;36.90;;;;;;4974336;28;20431;-75
2023/10/13 07:26:03;;;;;;;4.27;2.63;;;33.20;36.40;;;;;;4974228;28;20450;-74
2023/10/13 07:28:35;;;;;;;2.37;1.87;;;33.40;35.90;;;;;;4974485;28;20449;-74
2023/10/13 07:31:12;;;;;;;5.43;3.07;;;34.00;34.70;;;;;;4973881;28;20595;-74
2023/10/13 07:33:41;;;;;;;2.67;1.93;;;34.50;34.80;;;;;;4974222;28;20429;-75
2023/10/13 07:36:15;;;;;;;2.90;1.90;;;35.00;34.30;;;;;;4974079;28;20481;-74
2023/10/13 07:38:43;;;;;;;7.77;2.60;;;34.50;34.50;;;;;;4974205;28;20489;-72
2023/10/13 07:41:15;;;;;;;3.60;2.13;;;33.40;34.90;;;;;;4974070;28;20470;-73
2023/10/13 07:43:44;;;;;;;3.13;1.73;;;32.70;35.80;;;;;;4974140;28;20472;-73
2023/10/13 07:46:12;;;;;;;4.30;2.50;;;31.30;37.40;;;;;;4974108;28;20450;-75
2023/10/13 07:48:40;;;;;;;2.90;2.27;;;30.60;38.70;;;;;;4973840;28;21071;-73
2023/10/13 07:51:11;;;;;;;2.83;2.20;;;28.90;40.20;;;;;;4974661;28;20469;-75
2023/10/13 07:53:40;;;;;;;2.67;2.13;;;28.10;42.20;;;;;;4974128;28;20434;-76
2023/10/13 07:56:08;;;;;;;3.57;2.27;;;27.50;44.10;;;;;;4975609;28;21067;-78
2023/10/13 07:58:47;;;;;;;4.67;2.80;;;27.00;44.50;;;;;;4976392;28;20838;-82
2023/10/13 08:01:18;;;;;;;3.30;2.57;;;26.50;46.50;;;;;;4974574;28;20521;-78
2023/10/13 08:03:45;;;;;;;6.10;2.67;;;26.40;45.10;;;;;;4975933;28;20462;-79
2023/10/13 08:06:28;;;;;;;4.40;2.70;;;25.90;45.60;;;;;;4977011;28;20446;-78
2023/10/13 08:08:59;;;;;;;4.60;2.70;;;25.70;46.30;;;;;;4977782;28;20422;-80
2023/10/13 08:11:26;;;;;;;4.03;2.00;;;25.30;46.90;;;;;;4983590;28;20470;-79
2023/10/13 08:13:55;;;;;;;3.33;2.07;;;25.00;48.00;;;;;;4979531;28;20454;-79
2023/10/13 08:16:29;;;;;;;4.30;1.90;;;24.90;49.10;;;;;;4978439;28;20544;-78
2023/10/13 08:18:57;;;;;;;4.70;2.40;;;24.50;48.00;;;;;;4975745;28;20812;-75
2023/10/13 08:21:23;;;;;;;3.23;2.13;;;24.30;49.60;;;;;;4976250;28;20501;-76
2023/10/13 08:24:05;;;;;;;3.97;2.00;;;24.00;48.90;;;;;;4975122;28;20478;-77
2023/10/13 08:26:56;;;;;;;2.93;2.27;;;23.70;50.30;;;;;;4975842;28;20434;-78
2023/10/13 08:32:19;;;;;;;3.47;2.20;;;23.20;51.40;;;;;;4977863;28;20850;-71
2023/10/13 08:35:09;;;;;;;4.50;2.53;;;23.20;51.60;;;;;;4977761;28;20427;-76
2023/10/13 08:37:46;;;;;;;4.57;2.43;;;23.10;50.50;;;;;;4977164;28;20466;-75
2023/10/13 08:40:43;;;;;;;3.83;2.50;;;23.00;52.10;;;;;;4977363;28;20426;-73
2023/10/13 08:43:11;;;;;;;5.70;2.20;;;23.10;50.60;;;;;;4977056;28;20908;-76
2023/10/13 08:45:58;;;;;;;5.60;2.37;;;23.00;52.10;;;;;;4977331;28;20445;-75
2023/10/13 08:48:32;;;;;;;3.37;1.87;;;23.10;51.60;;;;;;4976934;28;20771;-74
2023/10/13 08:51:09;;;;;;;3.03;2.00;;;22.90;51.70;;;;;;4976753;28;20896;-74
2023/10/13 08:53:44;;;;;;;5.97;2.10;;;23.00;52.40;;;;;;4977477;28;20433;-75
2023/10/13 08:56:15;;;;;;;4.80;2.17;;;23.10;52.40;;;;;;4977147;28;20919;-75
2023/10/13 09:01:35;;;;;;;5.60;2.00;;;23.40;51.10;;;;;;4976970;28;20465;-76
2023/10/13 09:06:47;;;;;;;2.90;1.93;;;23.60;50.00;;;;;;4976717;28;20879;-76
2023/10/13 09:09:26;;;;;;;5.00;2.70;;;23.70;50.60;;;;;;4977104;28;20501;-76
2023/10/13 09:12:07;;;;;;;4.27;2.10;;;23.90;51.30;;;;;;4976913;28;20476;-75
2023/10/13 09:14:35;;;;;;;4.40;2.40;;;24.00;49.50;;;;;;4976952;28;20445;-74
2023/10/13 09:17:34;;;;;;;4.60;2.60;;;24.00;49.50;;;;;;4976174;28;21090;-75
2023/10/13 09:20:23;;;;;;;3.90;2.30;;;24.10;49.40;;;;;;4976399;28;20530;-76
2023/10/13 09:22:54;;;;;;;4.47;1.73;;;24.20;48.60;;;;;;4976485;28;20521;-74
2023/10/13 09:25:22;;;;;;;7.93;2.90;;;24.20;50.20;;;;;;4976689;28;20454;-75
2023/10/13 09:27:52;;;;;;;2.90;1.80;;;24.30;49.50;;;;;;4976489;28;20472;-76
2023/10/13 09:30:18;;;;;;;3.70;2.23;;;24.30;47.90;;;;;;4976582;28;20543;-74
2023/10/13 09:32:48;;;;;;;6.13;2.60;;;24.20;48.10;;;;;;4976387;28;20485;-76
2023/10/13 09:35:19;;;;;;;3.03;2.00;;;24.10;47.90;;;;;;4976384;28;20438;-75
2023/10/13 09:37:47;;;;;;;3.87;2.10;;;24.00;50.00;;;;;;4975329;28;20482;-74
2023/10/13 09:40:25;;;;;;;4.47;2.13;;;24.10;49.60;;;;;;4976213;28;20482;-76
2023/10/13 09:42:55;;;;;;;3.63;1.93;;;24.20;48.70;;;;;;4976421;28;20434;-74
2023/10/13 09:45:27;;;;;;;3.97;2.00;;;24.30;48.10;;;;;;4976112;28;20835;-72
2023/10/13 09:47:57;;;;;;;3.80;1.87;;;24.20;48.40;;;;;;4976418;28;20522;-74
2023/10/13 09:50:33;;;;;;;4.60;2.27;;;24.30;49.00;;;;;;4976048;28;20496;-74
2023/10/13 09:53:01;;;;;;;7.50;2.40;;;24.50;47.70;;;;;;4975958;28;20438;-76
2023/10/13 09:55:33;;;;;;;2.70;2.07;;;24.60;49.20;;;;;;4975617;28;20450;-75
2023/10/13 09:58:09;;;;;;;3.60;1.70;;;24.70;49.20;;;;;;4975545;28;20462;-75
2023/10/13 10:00:56;;;;;;;3.30;1.77;;;24.80;48.40;;;;;;4975344;28;20434;-74
2023/10/13 10:03:39;;;;;;;3.20;1.90;;;25.00;47.30;;;;;;4975525;28;20436;-75
2023/10/13 10:06:13;;;;;;;2.93;2.00;;;25.20;46.40;;;;;;4975153;28;20900;-74
2023/10/13 10:08:48;;;;;;;3.40;1.80;;;25.30;46.70;;;;;;4975421;28;20426;-75
2023/10/13 10:11:47;;;;;;;3.43;2.00;;;25.40;47.60;;;;;;4975380;28;20473;-77
2023/10/13 10:14:19;;;;;;;3.00;1.77;;;25.30;45.60;;;;;;4975442;28;20426;-74
2023/10/13 10:16:59;;;;;;;3.27;2.20;;;25.10;46.30;;;;;;4990665;23;20502;-80
2023/10/13 10:19:26;;;;;;;3.17;1.87;;;25.10;46.60;;;;;;4978775;28;20434;-80
2023/10/13 10:22:10;;;;;;;3.97;2.00;;;25.30;46.10;;;;;;4978421;28;20478;-81
2023/10/13 10:24:38;;;;;;;3.60;2.30;;;25.40;46.10;;;;;;4977291;28;20444;-82
2023/10/13 10:27:05;;;;;;;2.53;1.70;;;25.60;46.10;;;;;;4978692;28;20821;-83
2023/10/13 10:29:32;;;;;;;3.13;2.10;;;25.70;45.20;;;;;;4979118;28;20521;-81
2023/10/13 10:31:59;;;;;;;2.97;1.70;;;25.70;46.00;;;;;;4979233;28;20537;-84
2023/10/13 10:34:33;;;;;;;4.00;1.70;;;25.80;45.30;;;;;;4979044;28;20574;-79
2023/10/13 10:37:00;;;;;;;4.23;2.20;;;25.70;45.70;;;;;;4978182;28;20986;-76
2023/10/13 10:39:44;;;;;;;2.90;1.60;;;25.90;45.10;;;;;;4977004;28;20449;-80
2023/10/13 10:42:23;;;;;;;4.07;2.10;;;25.80;44.70;;;;;;4975306;28;20803;-78
2023/10/13 10:44:55;;;;;;;2.80;2.30;;;25.90;44.50;;;;;;4975266;28;20439;-77
2023/10/13 10:47:30;;;;;;;2.73;1.87;;;26.00;44.70;;;;;;4975211;28;20882;-79
2023/10/13 10:49:57;;;;;;;3.47;1.90;;;26.10;44.40;;;;;;4976456;28;20529;-79
2023/10/13 10:52:27;;;;;;;3.37;2.00;;;26.20;44.40;;;;;;4975851;28;20819;-78
2023/10/13 10:55:01;;;;;;;3.00;1.70;;;26.40;44.40;;;;;;4975283;28;20936;-79
2023/10/13 10:57:29;;;;;;;2.77;1.60;;;26.50;42.30;;;;;;4976212;28;20490;-78
2023/10/13 11:00:11;;;;;;;3.43;2.07;;;26.40;42.80;;;;;;4975929;28;20488;-80
2023/10/13 11:02:37;;;;;;;4.73;2.70;;;26.40;42.60;;;;;;4976830;28;20438;-80
2023/10/13 11:05:06;;;;;;;12.13;2.80;;;26.10;43.60;;;;;;4978414;28;20446;-79
2023/10/13 11:07:34;;;;;;;3.30;1.93;;;26.20;42.80;;;;;;4978144;28;20968;-78
2023/10/13 11:10:12;;;;;;;3.80;2.20;;;26.30;43.10;;;;;;4977947;28;20545;-79
2023/10/13 11:12:39;;;;;;;6.23;1.97;;;26.30;43.40;;;;;;4976819;28;20438;-79
2023/10/13 11:15:13;;;;;;;3.20;1.97;;;26.30;42.50;;;;;;4974989;28;20450;-79
2023/10/13 11:17:50;;;;;;;3.40;1.77;;;26.30;42.70;;;;;;4976449;28;20493;-74
2023/10/13 11:20:25;;;;;;;3.40;1.83;;;26.40;43.90;;;;;;4975373;28;20442;-78
2023/10/13 11:22:52;;;;;;;3.70;1.90;;;26.30;43.40;;;;;;4974577;28;20434;-77
2023/10/13 11:25:29;;;;;;;4.10;2.27;;;26.20;43.00;;;;;;4974160;28;20446;-77
2023/10/13 11:27:58;;;;;;;2.73;1.70;;;26.20;43.30;;;;;;4974433;28;20470;-77
2023/10/13 11:30:29;;;;;;;4.87;1.90;;;26.30;43.70;;;;;;4974529;28;20450;-78
2023/10/13 11:33:00;;;;;;;3.33;2.00;;;26.50;45.00;;;;;;4974437;28;20466;-78
2023/10/13 11:35:48;;;;;;;4.30;2.20;;;26.50;43.20;;;;;;4974607;28;20454;-77
2023/10/13 11:38:25;;;;;;;3.73;2.20;;;26.70;43.10;;;;;;4974396;28;20563;-78
2023/10/13 11:44:06;;;;;;;3.73;2.10;;;26.90;41.80;;;;;;4915076;29;20424;-77
2023/10/13 11:46:55;;;;;;;4.77;1.80;;;27.00;41.90;;;;;;4966498;28;20474;-78
2023/10/13 11:49:34;;;;;;;4.40;2.10;;;27.10;41.20;;;;;;4974239;28;20462;-77
2023/10/13 11:52:19;;;;;;;3.87;1.80;;;27.40;41.70;;;;;;4974611;28;20430;-77
2023/10/13 11:54:46;;;;;;;2.63;1.80;;;27.50;40.50;;;;;;4974470;28;20430;-78
2023/10/13 11:57:17;;;;;;;3.23;1.53;;;27.50;41.00;;;;;;4974529;28;20465;-78
2023/10/13 11:59:55;;;;;;;2.67;2.00;;;27.60;41.20;;;;;;4974607;28;20437;-77
2023/10/13 12:05:12;;;;;;;3.60;1.83;;;27.70;41.00;;;;;;4978639;28;20405;-78
2023/10/13 12:07:51;;;;;;;2.73;2.00;;;28.10;41.00;;;;;;4978116;28;20462;-78
2023/10/13 12:10:49;;;;;;;3.00;2.03;;;28.40;39.70;;;;;;4978247;28;20426;-78
2023/10/13 12:13:17;;;;;;;5.67;2.40;;;28.60;39.90;;;;;;4980863;28;20541;-78
2023/10/13 12:15:52;;;;;;;3.47;1.73;;;28.90;38.70;;;;;;4981221;28;20445;-78
2023/10/13 12:18:19;;;;;;;5.53;1.90;;;29.00;38.50;;;;;;4980425;28;20540;-79
2023/10/13 12:20:46;;;;;;;3.70;2.10;;;29.30;38.10;;;;;;4980291;28;20481;-78
2023/10/13 12:23:17;;;;;;;2.70;2.00;;;29.50;38.60;;;;;;4978102;28;20446;-78
2023/10/13 12:25:57;;;;;;;3.53;1.73;;;29.80;37.80;;;;;;4980533;28;20458;-80
2023/10/13 12:28:26;;;;;;;4.03;1.80;;;30.00;37.50;;;;;;4981302;28;21042;-79
2023/10/13 12:30:57;;;;;;;4.40;2.00;;;30.30;37.60;;;;;;4979069;28;20481;-80
2023/10/13 12:33:25;;;;;;;2.73;1.70;;;30.70;36.10;;;;;;4980727;28;21007;-80
2023/10/13 12:36:27;;;;;;;3.77;1.93;;;30.80;37.10;;;;;;4980687;28;20826;-81
2023/10/13 12:50:07;;;;;;;5.63;2.40;;;30.20;37.60;;;;;;4979644;28;20787;-79
2023/10/13 12:52:34;;;;;;;2.77;1.80;;;30.10;36.90;;;;;;4979497;28;20437;-77
2023/10/13 12:55:07;;;;;;;3.10;1.73;;;30.10;36.60;;;;;;4978493;28;20442;-78
2023/10/13 12:57:34;;;;;;;2.57;1.63;;;30.10;37.30;;;;;;4979967;28;20462;-79
2023/10/13 13:00:16;;;;;;;2.40;1.60;;;30.20;36.90;;;;;;4979491;28;20450;-79
2023/10/13 13:02:43;;;;;;;3.07;2.30;;;30.10;36.90;;;;;;4978717;28;20512;-78
2023/10/13 13:05:12;;;;;;;3.37;2.30;;;30.20;37.00;;;;;;4978268;28;20505;-79
2023/10/13 13:07:44;;;;;;;4.33;1.80;;;30.30;37.30;;;;;;4978721;28;20470;-76
2023/10/13 13:10:11;;;;;;;3.10;1.77;;;30.60;36.50;;;;;;4979231;28;20502;-78
2023/10/13 13:12:38;;;;;;;3.13;2.13;;;30.80;36.80;;;;;;4975608;28;20867;-78
2023/10/13 13:15:08;;;;;;;3.07;2.23;;;31.10;36.40;;;;;;4977588;28;20478;-78
2023/10/13 13:17:35;;;;;;;3.60;2.33;;;31.30;35.10;;;;;;4976926;28;20489;-78
2023/10/13 13:20:10;;;;;;;3.23;2.13;;;31.40;35.20;;;;;;4978727;28;20446;-78
2023/10/13 13:22:37;;;;;;;3.50;1.83;;;31.40;34.00;;;;;;4978909;28;20438;-78
2023/10/13 13:25:08;;;;;;;2.90;2.00;;;31.60;33.20;;;;;;4980527;28;20493;-79
2023/10/13 13:27:34;;;;;;;2.77;1.77;;;31.90;33.00;;;;;;4981383;28;20529;-78
2023/10/13 13:30:02;;;;;;;3.80;2.00;;;32.40;32.10;;;;;;4979863;28;20533;-78
2023/10/13 13:32:30;;;;;;;2.30;1.57;;;32.90;33.00;;;;;;4979539;28;20487;-79
2023/10/13 13:35:03;;;;;;;2.70;1.60;;;34.50;31.00;;;;;;4980468;28;20454;-78
2023/10/13 13:37:30;;;;;;;2.30;1.50;;;36.20;29.40;;;;;;4979610;28;20528;-79
2023/10/13 13:40:13;;;;;;;4.10;1.80;;;37.20;27.70;;;;;;4978264;28;20489;-78
2023/10/13 13:42:40;;;;;;;2.90;1.70;;;37.50;27.50;;;;;;4978968;28;20440;-77
2023/10/13 13:45:12;;;;;;;2.97;1.60;;;38.60;27.20;;;;;;4977500;28;20500;-80
2023/10/13 13:47:40;;;;;;;3.90;2.00;;;38.50;26.80;;;;;;4977495;28;20465;-77
2023/10/13 13:50:17;;;;;;;2.30;1.67;;;39.10;26.20;;;;;;4977503;28;20438;-78
2023/10/13 13:52:46;;;;;;;2.03;1.30;;;39.40;25.80;;;;;;4980642;28;20440;-79
2023/10/13 13:55:17;;;;;;;4.13;1.60;;;39.20;25.70;;;;;;4980541;28;20503;-79
2023/10/13 13:57:44;;;;;;;2.03;1.33;;;39.30;25.80;;;;;;4980196;28;20477;-79
2023/10/13 14:00:16;;;;;;;3.00;1.77;;;39.90;25.40;;;;;;4980189;28;20858;-79
2023/10/13 14:02:47;;;;;;;1.70;1.40;;;40.80;25.40;;;;;;4979984;28;20434;-78
2023/10/13 14:05:15;;;;;;;2.33;1.73;;;40.70;25.30;;;;;;4980292;28;20649;-79
2023/10/13 14:07:42;;;;;;;2.30;1.50;;;40.50;24.70;;;;;;4979840;28;20229;-78
2023/10/13 14:10:16;;;;;;;3.72;1.70;;;40.70;25.20;;;;;;4979968;28;20213;-79
2023/10/13 14:12:42;;;;;;;1.90;1.43;;;41.00;25.10;;;;;;4980517;28;20218;-79
2023/10/13 14:15:19;;;;;;;2.92;1.67;;;40.60;24.60;;;;;;4980498;28;20655;-79
2023/10/13 14:17:49;;;;;;;1.90;1.40;;;41.30;24.10;;;;;;4979436;28;20265;-79
2023/10/13 14:20:18;;;;;;;2.73;1.60;;;40.80;24.20;;;;;;4979288;28;20604;-79
2023/10/13 14:22:47;;;;;;;1.80;1.33;;;40.70;24.60;;;;;;4980379;28;20605;-80
2023/10/13 14:25:14;;;;;;;2.73;1.63;;;40.30;24.40;;;;;;4980079;28;20266;-79
2023/10/13 14:27:41;;;;;;;3.10;1.80;;;40.10;25.10;;;;;;4979657;28;20246;-78
2023/10/13 14:30:09;;;;;;;3.63;1.60;;;39.90;24.80;;;;;;4977567;28;20446;-77
2023/10/13 14:32:40;;;;;;;2.73;1.43;;;40.20;24.50;;;;;;4977618;28;20590;-79
2023/10/13 14:35:14;;;;;;;2.00;1.67;;;40.20;24.10;;;;;;4977068;28;20191;-77
2023/10/13 14:37:41;;;;;;;2.08;1.60;;;40.00;24.90;;;;;;4976088;28;20877;-77
2023/10/13 14:40:12;;;;;;;3.15;1.48;;;40.60;24.70;;;;;;4974928;28;20221;-77
2023/10/13 14:42:40;;;;;;;3.88;1.35;;;40.80;24.80;;;;;;4974903;28;20631;-75
2023/10/13 14:45:12;;;;;;;4.55;1.95;;;41.20;23.90;;;;;;4975565;28;20257;-77
2023/10/13 14:47:39;;;;;;;1.60;1.13;;;41.10;23.60;;;;;;4974915;28;20237;-78
2023/10/13 14:50:14;;;;;;;3.33;1.63;;;40.50;23.80;;;;;;4975109;28;20261;-79
2023/10/13 14:52:43;;;;;;;2.30;1.40;;;39.30;24.20;;;;;;4975214;28;20429;-77
2023/10/13 14:55:18;;;;;;;4.20;1.53;;;38.40;24.70;;;;;;4975339;28;20452;-77
2023/10/13 14:57:45;;;;;;;2.57;1.50;;;38.10;25.20;;;;;;4975982;28;20991;-78
2023/10/13 15:00:14;;;;;;;3.60;1.50;;;38.00;25.20;;;;;;4976361;28;20575;-78
2023/10/13 15:02:42;;;;;;;2.53;1.43;;;38.30;24.70;;;;;;4976480;28;20445;-78
2023/10/13 15:05:16;;;;;;;2.53;1.70;;;38.60;25.30;;;;;;4976909;28;20935;-79
2023/10/13 15:07:44;;;;;;;2.60;1.50;;;37.10;25.60;;;;;;4976142;28;20469;-77
2023/10/13 15:10:14;;;;;;;2.43;1.67;;;35.70;26.20;;;;;;4975305;28;20446;-78
2023/10/13 15:12:42;;;;;;;3.70;1.77;;;34.30;27.00;;;;;;4975569;28;20453;-79
2023/10/13 15:15:13;;;;;;;2.00;1.30;;;33.40;28.30;;;;;;4977779;28;20500;-77
2023/10/13 15:17:40;;;;;;;2.50;1.33;;;32.40;28.70;;;;;;4976328;28;20486;-78
2023/10/13 15:20:09;;;;;;;2.10;1.47;;;31.40;29.50;;;;;;4974993;28;20585;-78
2023/10/13 15:22:38;;;;;;;4.57;1.53;;;30.40;30.30;;;;;;4975544;28;20461;-79
2023/10/13 15:25:16;;;;;;;2.47;1.47;;;29.90;31.70;;;;;;4975037;28;20474;-78
2023/10/13 15:27:50;;;;;;;2.90;1.60;;;29.50;31.60;;;;;;4974374;28;20502;-78
2023/10/13 15:30:30;;;;;;;2.00;1.30;;;29.00;32.90;;;;;;4975270;28;20461;-79
2023/10/13 15:32:58;;;;;;;2.13;1.53;;;28.80;32.20;;;;;;4974310;28;20829;-77
2023/10/13 15:35:28;;;;;;;3.00;1.53;;;28.50;32.30;;;;;;4975246;28;20516;-77
2023/10/13 15:37:56;;;;;;;3.67;1.60;;;28.30;33.40;;;;;;4978696;28;20477;-77
2023/10/13 15:40:23;;;;;;;3.13;1.70;;;28.10;33.60;;;;;;4980979;28;21049;-79
2023/10/13 15:42:50;;;;;;;2.83;1.40;;;28.00;33.50;;;;;;4980560;28;20496;-78
2023/10/13 15:45:17;;;;;;;2.00;1.33;;;28.00;33.70;;;;;;4979632;28;20450;-78
2023/10/13 15:47:45;;;;;;;2.90;1.40;;;27.90;33.40;;;;;;4978886;28;20517;-77
2023/10/13 15:50:15;;;;;;;3.33;1.40;;;27.70;33.40;;;;;;4979058;28;20520;-79
2023/10/13 15:52:45;;;;;;;3.10;1.30;;;27.70;33.40;;;;;;4979037;28;20469;-77
2023/10/13 15:55:14;;;;;;;2.50;1.43;;;27.60;34.10;;;;;;4980885;28;20430;-78
2023/10/13 15:57:41;;;;;;;2.27;1.30;;;27.60;33.40;;;;;;4979925;28;20472;-77
2023/10/13 16:00:23;;;;;;;1.90;1.30;;;27.60;34.20;;;;;;4978661;28;20529;-78
2023/10/13 16:02:51;;;;;;;2.07;1.20;;;27.60;34.40;;;;;;4978424;28;20543;-77
2023/10/13 16:05:19;;;;;;;2.50;1.30;;;27.50;34.50;;;;;;4978633;28;20478;-80
2023/10/13 16:07:46;;;;;;;5.20;1.63;;;27.50;34.70;;;;;;4980194;28;20516;-77
2023/10/13 16:10:14;;;;;;;3.07;1.40;;;27.50;35.30;;;;;;4979839;28;20786;-78
2023/10/13 16:12:41;;;;;;;2.47;1.47;;;27.40;34.80;;;;;;4978712;28;20452;-78
2023/10/13 16:15:13;;;;;;;3.00;1.43;;;27.40;34.60;;;;;;4978304;28;20453;-79
2023/10/13 16:17:40;;;;;;;2.43;1.37;;;27.40;35.20;;;;;;5032323;23;20485;-71
2023/10/13 16:20:15;;;;;;;3.30;1.60;;;27.30;35.20;;;;;;4977384;28;20489;-71
2023/10/13 16:22:44;;;;;;;2.63;1.70;;;27.20;35.40;;;;;;4977470;28;20434;-71
2023/10/13 16:25:12;;;;;;;2.43;1.23;;;27.10;35.50;;;;;;4977358;28;20478;-71
2023/10/13 16:27:41;;;;;;;2.50;1.83;;;27.00;35.40;;;;;;4977432;28;20498;-72
2023/10/13 16:30:14;;;;;;;2.97;1.70;;;26.90;36.10;;;;;;4977249;28;20442;-71
2023/10/13 16:32:45;;;;;;;2.10;1.50;;;26.80;35.70;;;;;;4977760;28;20485;-71
2023/10/13 16:35:16;;;;;;;2.97;1.67;;;26.80;35.80;;;;;;4977490;28;20430;-77
2023/10/13 16:37:44;;;;;;;2.47;1.50;;;26.80;35.90;;;;;;4977636;28;20470;-77
2023/10/13 16:40:11;;;;;;;2.60;1.50;;;26.80;36.20;;;;;;4977707;28;20532;-77
2023/10/13 16:42:39;;;;;;;2.40;1.27;;;26.80;36.60;;;;;;4977481;28;20446;-77
2023/10/13 16:45:15;;;;;;;4.60;1.50;;;26.90;37.00;;;;;;4978244;28;20457;-77
2023/10/13 16:47:43;;;;;;;3.40;1.80;;;26.80;36.80;;;;;;4977744;28;20469;-77
2023/10/13 16:50:11;;;;;;;3.03;1.40;;;26.80;37.60;;;;;;4977099;28;20496;-77
2023/10/13 16:52:37;;;;;;;2.87;1.70;;;26.80;37.30;;;;;;4977156;28;20853;-77
2023/10/13 16:55:04;;;;;;;2.70;1.47;;;26.70;37.90;;;;;;4977691;28;20484;-77
2023/10/13 16:57:31;;;;;;;2.50;1.83;;;26.60;38.00;;;;;;4976979;28;20254;-78
2023/10/13 17:00:00;;;;;;;2.50;1.30;;;26.60;39.00;;;;;;4977648;28;20493;-77
2023/10/13 17:02:27;;;;;;;3.47;1.73;;;26.40;39.40;;;;;;4977042;28;20560;-77
2023/10/13 17:04:57;;;;;;;3.10;1.40;;;26.30;38.30;;;;;;4976833;28;20454;-77
2023/10/13 17:07:24;;;;;;;2.93;1.57;;;26.20;39.60;;;;;;4976713;28;21013;-77
2023/10/13 17:09:51;;;;;;;2.93;1.50;;;26.10;40.20;;;;;;4977724;28;20450;-77
2023/10/13 17:12:18;;;;;;;4.13;1.90;;;26.00;39.60;;;;;;4976567;28;20491;-77
2023/10/13 17:14:45;;;;;;;2.10;1.50;;;26.00;40.10;;;;;;4976802;28;20474;-77
2023/10/13 17:17:13;;;;;;;2.40;1.53;;;25.90;38.80;;;;;;4977007;28;20995;-78
2023/10/13 17:19:39;;;;;;;3.47;1.70;;;25.80;40.60;;;;;;4976831;28;20843;-77
2023/10/13 17:22:06;;;;;;;4.10;1.70;;;25.80;41.00;;;;;;4976754;28;20449;-77
2023/10/13 17:24:33;;;;;;;3.67;1.70;;;25.70;40.30;;;;;;4976769;28;20453;-76
2023/10/13 17:27:01;;;;;;;3.20;1.70;;;25.60;40.60;;;;;;4976565;28;20450;-77
2023/10/13 17:29:29;;;;;;;4.57;1.60;;;25.50;41.10;;;;;;4976478;28;20477;-77
2023/10/13 17:31:58;;;;;;;4.00;1.90;;;25.40;40.60;;;;;;4977131;28;20563;-77
2023/10/13 17:34:28;;;;;;;2.10;1.43;;;25.10;41.30;;;;;;4977649;28;20450;-77
2023/10/13 17:36:57;;;;;;;3.57;1.77;;;25.00;41.10;;;;;;4977114;28;20458;-77
2023/10/13 17:39:26;;;;;;;3.60;1.90;;;25.00;41.40;;;;;;4976824;28;20485;-77
2023/10/13 17:41:53;;;;;;;4.90;2.43;;;24.90;41.80;;;;;;4976627;28;20940;-78
2023/10/13 17:44:21;;;;;;;3.77;2.17;;;24.90;42.00;;;;;;4976536;28;20487;-77
2023/10/13 17:46:47;;;;;;;6.37;2.40;;;24.80;42.40;;;;;;4975721;28;21018;-77
2023/10/13 17:49:14;;;;;;;3.00;2.30;;;24.80;42.70;;;;;;4976446;28;20458;-78
2023/10/13 17:51:43;;;;;;;3.20;1.97;;;24.80;42.90;;;;;;4976397;28;20450;-78
2023/10/13 17:54:10;;;;;;;3.77;1.83;;;24.90;43.60;;;;;;4976401;28;20486;-77
2023/10/13 17:56:37;;;;;;;4.00;1.60;;;24.90;43.60;;;;;;4976171;28;20951;-77
2023/10/13 17:59:04;;;;;;;5.27;1.57;;;24.80;44.30;;;;;;4975348;28;20493;-78
2023/10/13 18:01:31;;;;;;;3.87;2.03;;;24.80;44.10;;;;;;4976344;28;20513;-77
2023/10/13 18:04:04;;;;;;;3.70;1.80;;;24.80;43.90;;;;;;4976165;28;20490;-77
2023/10/13 18:06:31;;;;;;;2.47;2.20;;;24.70;44.20;;;;;;4976120;28;20446;-78
2023/10/13 18:08:59;;;;;;;2.70;2.20;;;24.60;44.20;;;;;;4977596;28;20469;-80
2023/10/13 18:11:30;;;;;;;4.37;2.00;;;24.50;45.80;;;;;;4978097;28;20540;-80
2023/10/13 18:13:57;;;;;;;3.60;2.10;;;24.50;45.00;;;;;;4979355;28;20446;-81
2023/10/13 18:16:25;;;;;;;3.33;1.50;;;24.40;45.40;;;;;;4978765;28;20537;-80
2023/10/13 18:18:53;;;;;;;4.70;2.20;;;24.40;45.70;;;;;;4976635;28;20482;-79
2023/10/13 18:21:20;;;;;;;4.20;2.03;;;24.30;45.30;;;;;;4976420;28;20489;-78
2023/10/13 18:23:47;;;;;;;3.13;1.53;;;24.20;45.80;;;;;;4976347;28;20453;-78
2023/10/13 18:26:16;;;;;;;4.53;2.23;;;24.00;46.20;;;;;;4976479;28;20454;-78
2023/10/13 18:28:43;;;;;;;3.23;1.80;;;24.00;46.40;;;;;;4975725;28;20985;-78
2023/10/13 18:31:11;;;;;;;2.90;1.90;;;23.90;46.90;;;;;;4975937;28;20792;-78
2023/10/13 18:33:39;;;;;;;3.53;2.10;;;23.90;47.10;;;;;;4976262;28;20542;-78
2023/10/13 18:36:14;;;;;;;4.03;2.07;;;23.90;47.40;;;;;;4976184;28;20441;-78
2023/10/13 18:38:41;;;;;;;3.27;1.90;;;23.90;47.90;;;;;;4976353;28;20482;-78
2023/10/13 18:41:11;;;;;;;5.13;2.40;;;23.80;48.30;;;;;;4976062;28;20485;-76
2023/10/13 18:43:40;;;;;;;3.57;2.20;;;23.70;48.40;;;;;;4976074;28;21018;-78
2023/10/13 18:46:09;;;;;;;3.03;1.87;;;23.50;48.70;;;;;;4975909;28;20453;-78
2023/10/13 18:48:36;;;;;;;3.47;2.10;;;23.40;49.00;;;;;;4975368;28;20474;-78
2023/10/13 18:51:05;;;;;;;3.20;1.83;;;23.40;49.10;;;;;;4975476;28;20478;-78
2023/10/13 18:53:32;;;;;;;3.50;1.80;;;23.50;49.10;;;;;;4975244;28;20445;-76
2023/10/13 18:56:09;;;;;;;4.90;2.30;;;23.50;50.20;;;;;;4974814;28;20477;-75
2023/10/13 18:58:36;;;;;;;2.80;1.77;;;23.60;49.90;;;;;;4974824;28;20474;-74
2023/10/13 19:01:12;;;;;;;5.50;2.07;;;23.60;49.30;;;;;;4974656;28;20478;-75